sensor_id;sensor_type;location;lat;lon;timestamp;temperature;humidity
7234;DHT22;3658;47.992;10.158;2022-12-05T00:00:11;19.50;43.10
7234;DHT22;3658;47.992;10.158;2022-12-05T00:02:40;19.50;43.10
7234;DHT22;3658;47.992;10.158;2022-12-05T00:05:09;19.50;43.00
7234;DHT22;3658;47.992;10.158;2022-12-05T00:07:36;19.50;43.00
7234;DHT22;3658;47.992;10.158;2022-12-05T00:10:04;19.50;43.00
7234;DHT22;3658;47.992;10.158;2022-12-05T00:12:31;19.50;43.00
7234;DHT22;3658;47.992;10.158;2022-12-05T00:14:58;19.50;43.00
7234;DHT22;3658;47.992;10.158;2022-12-05T00:17:25;19.50;43.00
7234;DHT22;3658;47.992;10.158;2022-12-05T00:19:53;19.50;43.60
7234;DHT22;3658;47.992;10.158;2022-12-05T00:22:20;19.50;42.90
7234;DHT22;3658;47.992;10.158;2022-12-05T00:24:47;19.50;42.90
7234;DHT22;3658;47.992;10.158;2022-12-05T00:27:14;19.50;43.00
7234;DHT22;3658;47.992;10.158;2022-12-05T00:29:41;19.50;42.90
7234;DHT22;3658;47.992;10.158;2022-12-05T00:32:08;19.50;42.90
7234;DHT22;3658;47.992;10.158;2022-12-05T00:34:35;19.50;42.90
7234;DHT22;3658;47.992;10.158;2022-12-05T00:37:03;19.50;42.90
7234;DHT22;3658;47.992;10.158;2022-12-05T00:39:30;19.40;42.80
7234;DHT22;3658;47.992;10.158;2022-12-05T00:41:57;19.40;42.80
7234;DHT22;3658;47.992;10.158;2022-12-05T00:44:24;19.40;42.80
7234;DHT22;3658;47.992;10.158;2022-12-05T00:46:51;19.40;42.80
7234;DHT22;3658;47.992;10.158;2022-12-05T00:49:18;19.40;42.80
7234;DHT22;3658;47.992;10.158;2022-12-05T00:51:45;19.40;42.80
7234;DHT22;3658;47.992;10.158;2022-12-05T00:54:14;19.40;42.70
7234;DHT22;3658;47.992;10.158;2022-12-05T00:56:42;19.40;42.70
7234;DHT22;3658;47.992;10.158;2022-12-05T00:59:14;19.40;42.70
7234;DHT22;3658;47.992;10.158;2022-12-05T01:01:42;19.40;42.70
7234;DHT22;3658;47.992;10.158;2022-12-05T01:04:11;19.40;42.70
7234;DHT22;3658;47.992;10.158;2022-12-05T01:06:39;19.40;42.70
7234;DHT22;3658;47.992;10.158;2022-12-05T01:09:07;19.40;42.70
7234;DHT22;3658;47.992;10.158;2022-12-05T01:11:36;19.40;42.70
7234;DHT22;3658;47.992;10.158;2022-12-05T01:14:03;19.40;42.60
7234;DHT22;3658;47.992;10.158;2022-12-05T01:16:32;19.40;42.60
7234;DHT22;3658;47.992;10.158;2022-12-05T01:19:02;19.40;42.60
7234;DHT22;3658;47.992;10.158;2022-12-05T01:21:30;19.30;42.50
7234;DHT22;3658;47.992;10.158;2022-12-05T01:23:57;19.40;42.60
7234;DHT22;3658;47.992;10.158;2022-12-05T01:26:24;19.30;42.50
7234;DHT22;3658;47.992;10.158;2022-12-05T01:28:52;19.30;42.50
7234;DHT22;3658;47.992;10.158;2022-12-05T01:31:23;19.30;42.50
7234;DHT22;3658;47.992;10.158;2022-12-05T01:33:51;19.30;42.50
7234;DHT22;3658;47.992;10.158;2022-12-05T01:36:18;19.30;42.50
7234;DHT22;3658;47.992;10.158;2022-12-05T01:38:45;19.30;42.50
7234;DHT22;3658;47.992;10.158;2022-12-05T01:41:16;19.30;42.50
7234;DHT22;3658;47.992;10.158;2022-12-05T01:43:59;19.30;42.50
7234;DHT22;3658;47.992;10.158;2022-12-05T01:46:28;19.30;42.50
7234;DHT22;3658;47.992;10.158;2022-12-05T01:48:59;19.30;43.10
7234;DHT22;3658;47.992;10.158;2022-12-05T01:51:27;19.30;42.50
7234;DHT22;3658;47.992;10.158;2022-12-05T01:53:55;19.30;42.50
7234;DHT22;3658;47.992;10.158;2022-12-05T01:56:22;19.30;42.40
7234;DHT22;3658;47.992;10.158;2022-12-05T01:58:51;19.30;42.40
7234;DHT22;3658;47.992;10.158;2022-12-05T02:01:19;19.30;42.40
7234;DHT22;3658;47.992;10.158;2022-12-05T02:03:50;19.30;42.40
7234;DHT22;3658;47.992;10.158;2022-12-05T02:06:17;19.30;42.40
7234;DHT22;3658;47.992;10.158;2022-12-05T02:08:46;19.30;42.30
7234;DHT22;3658;47.992;10.158;2022-12-05T02:11:13;19.30;43.00
7234;DHT22;3658;47.992;10.158;2022-12-05T02:13:55;19.30;42.30
7234;DHT22;3658;47.992;10.158;2022-12-05T02:16:37;19.30;42.30
7234;DHT22;3658;47.992;10.158;2022-12-05T02:19:20;19.30;42.40
7234;DHT22;3658;47.992;10.158;2022-12-05T02:22:17;19.30;42.30
7234;DHT22;3658;47.992;10.158;2022-12-05T02:27:47;19.30;42.30
7234;DHT22;3658;47.992;10.158;2022-12-05T02:30:20;19.30;42.30
7234;DHT22;3658;47.992;10.158;2022-12-05T02:33:00;19.30;42.30
7234;DHT22;3658;47.992;10.158;2022-12-05T02:35:36;19.30;42.30
7234;DHT22;3658;47.992;10.158;2022-12-05T02:38:16;19.20;42.20
7234;DHT22;3658;47.992;10.158;2022-12-05T02:40:53;19.20;42.30
7234;DHT22;3658;47.992;10.158;2022-12-05T02:43:29;19.20;42.20
7234;DHT22;3658;47.992;10.158;2022-12-05T02:46:04;19.20;42.20
7234;DHT22;3658;47.992;10.158;2022-12-05T02:48:35;19.20;42.20
7234;DHT22;3658;47.992;10.158;2022-12-05T02:51:04;19.20;42.20
7234;DHT22;3658;47.992;10.158;2022-12-05T02:53:34;19.20;42.20
7234;DHT22;3658;47.992;10.158;2022-12-05T02:56:02;19.20;42.20
7234;DHT22;3658;47.992;10.158;2022-12-05T02:58:32;19.20;42.20
7234;DHT22;3658;47.992;10.158;2022-12-05T03:01:01;19.20;42.20
7234;DHT22;3658;47.992;10.158;2022-12-05T03:03:29;19.20;42.20
7234;DHT22;3658;47.992;10.158;2022-12-05T03:06:02;19.20;42.20
7234;DHT22;3658;47.992;10.158;2022-12-05T03:08:33;19.20;42.10
7234;DHT22;3658;47.992;10.158;2022-12-05T03:11:02;19.20;42.20
7234;DHT22;3658;47.992;10.158;2022-12-05T03:13:35;19.20;42.20
7234;DHT22;3658;47.992;10.158;2022-12-05T03:16:10;19.20;42.10
7234;DHT22;3658;47.992;10.158;2022-12-05T03:18:40;19.20;42.10
7234;DHT22;3658;47.992;10.158;2022-12-05T03:21:14;19.20;42.10
7234;DHT22;3658;47.992;10.158;2022-12-05T03:23:48;19.20;42.10
7234;DHT22;3658;47.992;10.158;2022-12-05T03:26:22;19.20;42.10
7234;DHT22;3658;47.992;10.158;2022-12-05T03:28:56;19.20;42.10
7234;DHT22;3658;47.992;10.158;2022-12-05T03:31:33;19.20;42.10
7234;DHT22;3658;47.992;10.158;2022-12-05T03:34:06;19.20;42.10
7234;DHT22;3658;47.992;10.158;2022-12-05T03:36:37;19.20;42.10
7234;DHT22;3658;47.992;10.158;2022-12-05T03:39:09;19.20;42.10
7234;DHT22;3658;47.992;10.158;2022-12-05T03:41:40;19.10;42.00
7234;DHT22;3658;47.992;10.158;2022-12-05T03:44:12;19.20;42.10
7234;DHT22;3658;47.992;10.158;2022-12-05T03:46:45;19.10;42.00
7234;DHT22;3658;47.992;10.158;2022-12-05T03:49:17;19.10;42.00
7234;DHT22;3658;47.992;10.158;2022-12-05T03:51:51;19.10;42.00
7234;DHT22;3658;47.992;10.158;2022-12-05T03:54:22;19.10;42.00
7234;DHT22;3658;47.992;10.158;2022-12-05T03:56:54;19.10;42.00
7234;DHT22;3658;47.992;10.158;2022-12-05T03:59:29;19.10;42.00
7234;DHT22;3658;47.992;10.158;2022-12-05T04:02:06;19.10;42.00
7234;DHT22;3658;47.992;10.158;2022-12-05T04:04:38;19.10;42.00
7234;DHT22;3658;47.992;10.158;2022-12-05T04:07:08;19.10;42.00
7234;DHT22;3658;47.992;10.158;2022-12-05T04:09:39;19.10;42.00
7234;DHT22;3658;47.992;10.158;2022-12-05T04:12:09;19.10;42.00
7234;DHT22;3658;47.992;10.158;2022-12-05T04:14:40;19.10;42.00
7234;DHT22;3658;47.992;10.158;2022-12-05T04:17:15;19.10;42.00
7234;DHT22;3658;47.992;10.158;2022-12-05T04:19:46;19.10;42.00
7234;DHT22;3658;47.992;10.158;2022-12-05T04:22:31;19.10;42.00
7234;DHT22;3658;47.992;10.158;2022-12-05T04:25:01;19.10;42.00
7234;DHT22;3658;47.992;10.158;2022-12-05T04:27:51;19.10;42.00
7234;DHT22;3658;47.992;10.158;2022-12-05T04:30:21;19.20;42.60
7234;DHT22;3658;47.992;10.158;2022-12-05T04:32:57;19.20;43.80
7234;DHT22;3658;47.992;10.158;2022-12-05T04:35:29;19.20;43.30
7234;DHT22;3658;47.992;10.158;2022-12-05T04:38:01;19.20;43.00
7234;DHT22;3658;47.992;10.158;2022-12-05T04:40:33;19.20;42.90
7234;DHT22;3658;47.992;10.158;2022-12-05T04:43:01;19.20;43.10
7234;DHT22;3658;47.992;10.158;2022-12-05T04:45:29;19.20;43.60
7234;DHT22;3658;47.992;10.158;2022-12-05T04:48:03;19.20;43.60
7234;DHT22;3658;47.992;10.158;2022-12-05T04:50:32;19.20;43.60
7234;DHT22;3658;47.992;10.158;2022-12-05T04:53:01;19.20;43.50
7234;DHT22;3658;47.992;10.158;2022-12-05T04:55:30;19.20;43.70
7234;DHT22;3658;47.992;10.158;2022-12-05T04:58:05;19.20;44.00
7234;DHT22;3658;47.992;10.158;2022-12-05T05:00:37;19.20;44.30
7234;DHT22;3658;47.992;10.158;2022-12-05T05:03:12;19.20;44.20
7234;DHT22;3658;47.992;10.158;2022-12-05T05:05:44;19.20;43.80
7234;DHT22;3658;47.992;10.158;2022-12-05T05:08:16;19.10;43.50
7234;DHT22;3658;47.992;10.158;2022-12-05T05:10:49;19.10;43.30
7234;DHT22;3658;47.992;10.158;2022-12-05T05:13:17;19.10;43.30
7234;DHT22;3658;47.992;10.158;2022-12-05T05:15:44;19.10;43.30
7234;DHT22;3658;47.992;10.158;2022-12-05T05:18:12;19.10;43.20
7234;DHT22;3658;47.992;10.158;2022-12-05T05:20:39;19.10;43.20
7234;DHT22;3658;47.992;10.158;2022-12-05T05:23:06;19.10;43.10
7234;DHT22;3658;47.992;10.158;2022-12-05T05:25:33;19.10;43.10
7234;DHT22;3658;47.992;10.158;2022-12-05T05:28:00;19.10;43.10
7234;DHT22;3658;47.992;10.158;2022-12-05T05:30:27;19.10;43.10
7234;DHT22;3658;47.992;10.158;2022-12-05T05:32:54;19.10;43.00
7234;DHT22;3658;47.992;10.158;2022-12-05T05:35:22;19.10;43.00
7234;DHT22;3658;47.992;10.158;2022-12-05T05:37:49;19.10;43.10
7234;DHT22;3658;47.992;10.158;2022-12-05T05:40:17;19.00;42.90
7234;DHT22;3658;47.992;10.158;2022-12-05T05:42:44;19.10;43.00
7234;DHT22;3658;47.992;10.158;2022-12-05T05:45:13;19.00;42.90
7234;DHT22;3658;47.992;10.158;2022-12-05T05:47:40;19.10;43.00
7234;DHT22;3658;47.992;10.158;2022-12-05T05:50:09;19.10;43.00
7234;DHT22;3658;47.992;10.158;2022-12-05T05:52:37;19.00;42.90
7234;DHT22;3658;47.992;10.158;2022-12-05T05:55:06;19.00;42.90
7234;DHT22;3658;47.992;10.158;2022-12-05T05:57:33;19.00;42.90
7234;DHT22;3658;47.992;10.158;2022-12-05T06:00:00;19.00;42.80
7234;DHT22;3658;47.992;10.158;2022-12-05T06:02:31;19.00;42.80
7234;DHT22;3658;47.992;10.158;2022-12-05T06:04:59;19.00;42.90
7234;DHT22;3658;47.992;10.158;2022-12-05T06:07:26;19.00;42.90
7234;DHT22;3658;47.992;10.158;2022-12-05T06:09:54;19.00;42.90
7234;DHT22;3658;47.992;10.158;2022-12-05T06:12:21;19.00;42.90
7234;DHT22;3658;47.992;10.158;2022-12-05T06:14:49;19.00;42.80
7234;DHT22;3658;47.992;10.158;2022-12-05T06:17:16;19.00;42.90
7234;DHT22;3658;47.992;10.158;2022-12-05T06:19:43;19.00;42.90
7234;DHT22;3658;47.992;10.158;2022-12-05T06:22:10;19.00;42.90
7234;DHT22;3658;47.992;10.158;2022-12-05T06:24:36;19.00;42.80
7234;DHT22;3658;47.992;10.158;2022-12-05T06:27:05;19.00;42.80
7234;DHT22;3658;47.992;10.158;2022-12-05T06:29:33;19.00;42.80
7234;DHT22;3658;47.992;10.158;2022-12-05T06:32:00;19.00;42.90
7234;DHT22;3658;47.992;10.158;2022-12-05T06:34:28;19.00;42.80
7234;DHT22;3658;47.992;10.158;2022-12-05T06:36:57;19.00;42.80
7234;DHT22;3658;47.992;10.158;2022-12-05T06:39:24;19.00;42.90
7234;DHT22;3658;47.992;10.158;2022-12-05T06:41:51;19.00;42.80
7234;DHT22;3658;47.992;10.158;2022-12-05T06:44:19;19.00;42.90
7234;DHT22;3658;47.992;10.158;2022-12-05T06:46:46;19.00;42.90
7234;DHT22;3658;47.992;10.158;2022-12-05T06:49:13;19.00;42.80
7234;DHT22;3658;47.992;10.158;2022-12-05T06:51:40;19.00;42.90
7234;DHT22;3658;47.992;10.158;2022-12-05T06:54:07;19.00;42.90
7234;DHT22;3658;47.992;10.158;2022-12-05T06:56:34;19.00;42.90
7234;DHT22;3658;47.992;10.158;2022-12-05T06:59:01;19.00;42.90
7234;DHT22;3658;47.992;10.158;2022-12-05T07:01:29;19.00;42.90
7234;DHT22;3658;47.992;10.158;2022-12-05T07:04:08;19.00;42.90
7234;DHT22;3658;47.992;10.158;2022-12-05T07:06:37;19.00;42.90
7234;DHT22;3658;47.992;10.158;2022-12-05T07:09:04;19.00;42.90
7234;DHT22;3658;47.992;10.158;2022-12-05T07:11:31;19.00;42.90
7234;DHT22;3658;47.992;10.158;2022-12-05T07:13:58;18.90;43.50
7234;DHT22;3658;47.992;10.158;2022-12-05T07:16:25;18.90;42.80
7234;DHT22;3658;47.992;10.158;2022-12-05T07:18:54;18.90;42.80
7234;DHT22;3658;47.992;10.158;2022-12-05T07:21:21;18.90;42.80
7234;DHT22;3658;47.992;10.158;2022-12-05T07:23:49;18.90;42.80
7234;DHT22;3658;47.992;10.158;2022-12-05T07:26:17;18.90;42.80
7234;DHT22;3658;47.992;10.158;2022-12-05T07:28:45;18.90;42.80
7234;DHT22;3658;47.992;10.158;2022-12-05T07:31:15;18.90;42.80
7234;DHT22;3658;47.992;10.158;2022-12-05T07:33:42;18.90;42.80
7234;DHT22;3658;47.992;10.158;2022-12-05T07:36:13;18.90;42.80
7234;DHT22;3658;47.992;10.158;2022-12-05T07:38:41;18.90;42.80
7234;DHT22;3658;47.992;10.158;2022-12-05T07:41:10;18.90;42.80
7234;DHT22;3658;47.992;10.158;2022-12-05T07:43:39;18.90;42.80
7234;DHT22;3658;47.992;10.158;2022-12-05T07:46:08;18.90;42.80
7234;DHT22;3658;47.992;10.158;2022-12-05T07:48:35;18.90;42.80
7234;DHT22;3658;47.992;10.158;2022-12-05T07:51:04;18.90;42.80
7234;DHT22;3658;47.992;10.158;2022-12-05T07:53:33;18.90;42.80
7234;DHT22;3658;47.992;10.158;2022-12-05T07:56:02;18.90;42.80
7234;DHT22;3658;47.992;10.158;2022-12-05T07:58:29;18.90;42.80
7234;DHT22;3658;47.992;10.158;2022-12-05T08:00:57;18.90;42.80
7234;DHT22;3658;47.992;10.158;2022-12-05T08:03:31;18.90;42.80
7234;DHT22;3658;47.992;10.158;2022-12-05T08:06:01;18.90;42.80
7234;DHT22;3658;47.992;10.158;2022-12-05T08:08:28;18.90;42.80
7234;DHT22;3658;47.992;10.158;2022-12-05T08:11:02;18.90;42.80
7234;DHT22;3658;47.992;10.158;2022-12-05T08:13:29;18.90;42.80
7234;DHT22;3658;47.992;10.158;2022-12-05T08:15:59;18.90;42.80
7234;DHT22;3658;47.992;10.158;2022-12-05T08:18:27;18.90;42.80
7234;DHT22;3658;47.992;10.158;2022-12-05T08:20:54;18.90;42.80
7234;DHT22;3658;47.992;10.158;2022-12-05T08:23:21;18.90;42.80
7234;DHT22;3658;47.992;10.158;2022-12-05T08:25:59;18.90;42.80
7234;DHT22;3658;47.992;10.158;2022-12-05T08:28:31;18.90;42.80
7234;DHT22;3658;47.992;10.158;2022-12-05T08:31:03;18.90;42.80
7234;DHT22;3658;47.992;10.158;2022-12-05T08:33:30;18.80;42.80
7234;DHT22;3658;47.992;10.158;2022-12-05T08:35:59;18.90;42.80
7234;DHT22;3658;47.992;10.158;2022-12-05T08:38:27;18.90;42.90
7234;DHT22;3658;47.992;10.158;2022-12-05T08:40:54;18.90;42.80
7234;DHT22;3658;47.992;10.158;2022-12-05T08:43:22;18.80;42.80
7234;DHT22;3658;47.992;10.158;2022-12-05T08:45:50;18.90;42.80
7234;DHT22;3658;47.992;10.158;2022-12-05T08:48:17;18.80;42.80
7234;DHT22;3658;47.992;10.158;2022-12-05T08:50:44;18.90;42.80
7234;DHT22;3658;47.992;10.158;2022-12-05T08:53:11;18.80;42.70
7234;DHT22;3658;47.992;10.158;2022-12-05T08:55:38;18.80;42.80
7234;DHT22;3658;47.992;10.158;2022-12-05T08:58:05;18.80;42.80
7234;DHT22;3658;47.992;10.158;2022-12-05T09:00:33;18.90;42.80
7234;DHT22;3658;47.992;10.158;2022-12-05T09:03:00;18.80;42.70
7234;DHT22;3658;47.992;10.158;2022-12-05T09:05:27;18.80;42.80
7234;DHT22;3658;47.992;10.158;2022-12-05T09:07:54;18.80;42.80
7234;DHT22;3658;47.992;10.158;2022-12-05T09:10:22;18.80;42.70
7234;DHT22;3658;47.992;10.158;2022-12-05T09:12:49;18.80;42.70
7234;DHT22;3658;47.992;10.158;2022-12-05T09:15:16;18.80;42.70
7234;DHT22;3658;47.992;10.158;2022-12-05T09:17:45;18.80;42.80
7234;DHT22;3658;47.992;10.158;2022-12-05T09:20:12;18.80;42.80
7234;DHT22;3658;47.992;10.158;2022-12-05T09:22:39;18.80;42.70
7234;DHT22;3658;47.992;10.158;2022-12-05T09:25:08;18.80;42.70
7234;DHT22;3658;47.992;10.158;2022-12-05T09:27:35;18.80;42.70
7234;DHT22;3658;47.992;10.158;2022-12-05T09:30:03;18.80;42.70
7234;DHT22;3658;47.992;10.158;2022-12-05T09:32:30;18.80;42.80
7234;DHT22;3658;47.992;10.158;2022-12-05T09:34:58;18.80;42.70
7234;DHT22;3658;47.992;10.158;2022-12-05T09:37:25;18.90;42.80
7234;DHT22;3658;47.992;10.158;2022-12-05T09:39:52;18.80;42.70
7234;DHT22;3658;47.992;10.158;2022-12-05T09:42:37;18.80;42.70
7234;DHT22;3658;47.992;10.158;2022-12-05T09:45:23;18.80;42.70
7234;DHT22;3658;47.992;10.158;2022-12-05T09:47:55;18.80;42.70
7234;DHT22;3658;47.992;10.158;2022-12-05T09:50:26;18.80;42.70
7234;DHT22;3658;47.992;10.158;2022-12-05T09:53:15;18.80;42.70
7234;DHT22;3658;47.992;10.158;2022-12-05T09:55:50;18.80;42.70
7234;DHT22;3658;47.992;10.158;2022-12-05T09:58:25;18.80;42.70
7234;DHT22;3658;47.992;10.158;2022-12-05T10:00:58;18.80;42.70
7234;DHT22;3658;47.992;10.158;2022-12-05T10:03:30;18.80;42.70
7234;DHT22;3658;47.992;10.158;2022-12-05T10:06:08;18.80;42.70
7234;DHT22;3658;47.992;10.158;2022-12-05T10:08:46;18.80;42.70
7234;DHT22;3658;47.992;10.158;2022-12-05T10:11:24;18.80;42.70
7234;DHT22;3658;47.992;10.158;2022-12-05T10:14:01;18.80;42.70
7234;DHT22;3658;47.992;10.158;2022-12-05T10:16:32;18.80;42.70
7234;DHT22;3658;47.992;10.158;2022-12-05T10:19:03;18.80;42.70
7234;DHT22;3658;47.992;10.158;2022-12-05T10:21:38;18.80;42.70
7234;DHT22;3658;47.992;10.158;2022-12-05T10:24:12;18.80;42.70
7234;DHT22;3658;47.992;10.158;2022-12-05T10:26:43;18.80;42.70
7234;DHT22;3658;47.992;10.158;2022-12-05T10:29:20;18.80;42.70
7234;DHT22;3658;47.992;10.158;2022-12-05T10:31:51;18.80;42.70
7234;DHT22;3658;47.992;10.158;2022-12-05T10:34:27;18.80;42.60
7234;DHT22;3658;47.992;10.158;2022-12-05T10:37:00;18.80;42.60
7234;DHT22;3658;47.992;10.158;2022-12-05T10:39:28;18.80;42.60
7234;DHT22;3658;47.992;10.158;2022-12-05T10:41:55;18.80;42.70
7234;DHT22;3658;47.992;10.158;2022-12-05T10:44:22;18.80;42.60
7234;DHT22;3658;47.992;10.158;2022-12-05T10:46:49;18.80;42.60
7234;DHT22;3658;47.992;10.158;2022-12-05T10:49:16;18.80;42.60
7234;DHT22;3658;47.992;10.158;2022-12-05T10:51:44;18.80;42.60
7234;DHT22;3658;47.992;10.158;2022-12-05T10:54:19;18.80;42.60
7234;DHT22;3658;47.992;10.158;2022-12-05T10:56:47;18.80;42.50
7234;DHT22;3658;47.992;10.158;2022-12-05T10:59:16;18.80;42.50
7234;DHT22;3658;47.992;10.158;2022-12-05T11:01:46;18.80;42.50
7234;DHT22;3658;47.992;10.158;2022-12-05T11:04:23;18.80;42.50
7234;DHT22;3658;47.992;10.158;2022-12-05T11:06:53;18.80;42.60
7234;DHT22;3658;47.992;10.158;2022-12-05T11:09:24;18.80;42.50
7234;DHT22;3658;47.992;10.158;2022-12-05T11:12:17;18.80;42.50
7234;DHT22;3658;47.992;10.158;2022-12-05T11:14:57;18.80;42.50
7234;DHT22;3658;47.992;10.158;2022-12-05T11:17:26;18.80;42.50
7234;DHT22;3658;47.992;10.158;2022-12-05T11:19:55;18.70;42.40
7234;DHT22;3658;47.992;10.158;2022-12-05T11:22:30;18.70;42.40
7234;DHT22;3658;47.992;10.158;2022-12-05T11:25:23;18.70;42.40
7234;DHT22;3658;47.992;10.158;2022-12-05T11:27:50;18.70;42.40
7234;DHT22;3658;47.992;10.158;2022-12-05T11:30:19;18.70;42.40
7234;DHT22;3658;47.992;10.158;2022-12-05T11:32:46;18.80;42.50
7234;DHT22;3658;47.992;10.158;2022-12-05T11:35:21;18.70;42.40
7234;DHT22;3658;47.992;10.158;2022-12-05T11:37:53;18.70;42.30
7234;DHT22;3658;47.992;10.158;2022-12-05T11:40:27;18.70;42.30
7234;DHT22;3658;47.992;10.158;2022-12-05T11:43:16;18.80;42.40
7234;DHT22;3658;47.992;10.158;2022-12-05T11:45:54;18.80;42.40
7234;DHT22;3658;47.992;10.158;2022-12-05T11:48:36;18.80;42.40
7234;DHT22;3658;47.992;10.158;2022-12-05T11:51:17;18.70;42.30
7234;DHT22;3658;47.992;10.158;2022-12-05T11:54:11;18.70;42.30
7234;DHT22;3658;47.992;10.158;2022-12-05T11:56:47;18.70;42.30
7234;DHT22;3658;47.992;10.158;2022-12-05T11:59:49;18.70;42.30
7234;DHT22;3658;47.992;10.158;2022-12-05T12:02:32;18.70;42.90
7234;DHT22;3658;47.992;10.158;2022-12-05T12:05:07;18.70;42.30
7234;DHT22;3658;47.992;10.158;2022-12-05T12:07:59;18.70;42.30
7234;DHT22;3658;47.992;10.158;2022-12-05T12:10:34;18.70;42.30
7234;DHT22;3658;47.992;10.158;2022-12-05T12:13:15;18.70;42.30
7234;DHT22;3658;47.992;10.158;2022-12-05T12:15:53;18.70;42.30
7234;DHT22;3658;47.992;10.158;2022-12-05T12:18:45;18.70;42.30
7234;DHT22;3658;47.992;10.158;2022-12-05T12:21:18;18.70;42.30
7234;DHT22;3658;47.992;10.158;2022-12-05T12:24:06;18.70;42.30
7234;DHT22;3658;47.992;10.158;2022-12-05T12:26:45;18.70;42.30
7234;DHT22;3658;47.992;10.158;2022-12-05T12:29:25;18.70;42.30
7234;DHT22;3658;47.992;10.158;2022-12-05T12:32:09;18.70;42.30
7234;DHT22;3658;47.992;10.158;2022-12-05T12:34:53;18.70;42.20
7234;DHT22;3658;47.992;10.158;2022-12-05T12:37:33;18.70;42.20
7234;DHT22;3658;47.992;10.158;2022-12-05T12:40:11;18.70;42.20
7234;DHT22;3658;47.992;10.158;2022-12-05T12:42:47;18.70;42.20
7234;DHT22;3658;47.992;10.158;2022-12-05T12:45:42;18.70;42.20
7234;DHT22;3658;47.992;10.158;2022-12-05T12:48:26;18.70;42.20
7234;DHT22;3658;47.992;10.158;2022-12-05T12:50:55;18.70;42.20
7234;DHT22;3658;47.992;10.158;2022-12-05T12:56:30;18.70;42.30
7234;DHT22;3658;47.992;10.158;2022-12-05T12:59:13;18.70;42.20
7234;DHT22;3658;47.992;10.158;2022-12-05T13:01:48;18.70;42.20
7234;DHT22;3658;47.992;10.158;2022-12-05T13:04:21;18.70;42.20
7234;DHT22;3658;47.992;10.158;2022-12-05T13:06:52;18.70;42.20
7234;DHT22;3658;47.992;10.158;2022-12-05T13:09:26;18.70;42.20
7234;DHT22;3658;47.992;10.158;2022-12-05T13:11:55;18.70;42.20
7234;DHT22;3658;47.992;10.158;2022-12-05T13:14:25;18.70;42.20
7234;DHT22;3658;47.992;10.158;2022-12-05T13:16:55;18.70;42.20
7234;DHT22;3658;47.992;10.158;2022-12-05T13:19:27;18.70;42.20
7234;DHT22;3658;47.992;10.158;2022-12-05T13:21:56;18.70;42.20
7234;DHT22;3658;47.992;10.158;2022-12-05T13:24:26;18.70;42.20
7234;DHT22;3658;47.992;10.158;2022-12-05T13:26:57;18.70;42.10
7234;DHT22;3658;47.992;10.158;2022-12-05T13:29:29;18.70;42.10
7234;DHT22;3658;47.992;10.158;2022-12-05T13:31:59;18.70;42.10
7234;DHT22;3658;47.992;10.158;2022-12-05T13:34:45;18.70;42.10
7234;DHT22;3658;47.992;10.158;2022-12-05T13:37:20;18.70;42.10
7234;DHT22;3658;47.992;10.158;2022-12-05T13:40:17;18.70;42.10
7234;DHT22;3658;47.992;10.158;2022-12-05T13:43:03;18.70;42.10
7234;DHT22;3658;47.992;10.158;2022-12-05T13:45:31;18.70;42.10
7234;DHT22;3658;47.992;10.158;2022-12-05T13:48:12;18.70;42.00
7234;DHT22;3658;47.992;10.158;2022-12-05T13:50:44;18.70;42.10
7234;DHT22;3658;47.992;10.158;2022-12-05T13:53:28;18.70;42.00
7234;DHT22;3658;47.992;10.158;2022-12-05T13:56:01;18.70;42.00
7234;DHT22;3658;47.992;10.158;2022-12-05T13:58:46;18.70;42.00
7234;DHT22;3658;47.992;10.158;2022-12-05T14:01:48;18.70;42.00
7234;DHT22;3658;47.992;10.158;2022-12-05T14:04:42;18.70;42.00
7234;DHT22;3658;47.992;10.158;2022-12-05T14:07:10;18.70;42.00
7234;DHT22;3658;47.992;10.158;2022-12-05T14:09:51;18.70;42.00
7234;DHT22;3658;47.992;10.158;2022-12-05T14:12:30;18.70;42.00
7234;DHT22;3658;47.992;10.158;2022-12-05T14:15:27;18.70;42.00
7234;DHT22;3658;47.992;10.158;2022-12-05T14:18:02;18.70;42.00
7234;DHT22;3658;47.992;10.158;2022-12-05T14:20:45;18.60;41.90
7234;DHT22;3658;47.992;10.158;2022-12-05T14:23:26;18.70;42.00
7234;DHT22;3658;47.992;10.158;2022-12-05T14:26:06;18.70;42.00
7234;DHT22;3658;47.992;10.158;2022-12-05T14:28:53;18.70;42.00
7234;DHT22;3658;47.992;10.158;2022-12-05T14:31:36;18.70;42.00
7234;DHT22;3658;47.992;10.158;2022-12-05T14:34:24;18.70;42.00
7234;DHT22;3658;47.992;10.158;2022-12-05T14:36:58;18.70;42.00
7234;DHT22;3658;47.992;10.158;2022-12-05T14:39:38;18.70;42.00
7234;DHT22;3658;47.992;10.158;2022-12-05T14:42:21;18.60;41.90
7234;DHT22;3658;47.992;10.158;2022-12-05T14:44:51;18.60;41.90
7234;DHT22;3658;47.992;10.158;2022-12-05T14:47:21;18.60;41.90
7234;DHT22;3658;47.992;10.158;2022-12-05T14:49:59;18.70;42.00
7234;DHT22;3658;47.992;10.158;2022-12-05T14:53:21;18.70;42.00
7234;DHT22;3658;47.992;10.158;2022-12-05T14:55:52;18.60;41.90
7234;DHT22;3658;47.992;10.158;2022-12-05T14:58:25;18.60;41.90
7234;DHT22;3658;47.992;10.158;2022-12-05T15:00:55;18.60;41.90
7234;DHT22;3658;47.992;10.158;2022-12-05T15:03:30;18.60;41.90
7234;DHT22;3658;47.992;10.158;2022-12-05T15:06:00;18.60;41.90
7234;DHT22;3658;47.992;10.158;2022-12-05T15:08:33;18.60;41.90
7234;DHT22;3658;47.992;10.158;2022-12-05T15:11:01;18.60;41.90
7234;DHT22;3658;47.992;10.158;2022-12-05T15:13:28;18.60;41.90
7234;DHT22;3658;47.992;10.158;2022-12-05T15:15:59;18.60;41.90
7234;DHT22;3658;47.992;10.158;2022-12-05T15:18:36;18.60;41.90
7234;DHT22;3658;47.992;10.158;2022-12-05T15:21:08;18.60;41.90
7234;DHT22;3658;47.992;10.158;2022-12-05T15:23:43;18.60;41.90
7234;DHT22;3658;47.992;10.158;2022-12-05T15:26:18;18.60;41.80
7234;DHT22;3658;47.992;10.158;2022-12-05T15:29:04;18.60;41.80
7234;DHT22;3658;47.992;10.158;2022-12-05T15:31:33;18.60;41.80
7234;DHT22;3658;47.992;10.158;2022-12-05T15:34:05;18.60;41.80
7234;DHT22;3658;47.992;10.158;2022-12-05T15:36:34;18.60;41.80
7234;DHT22;3658;47.992;10.158;2022-12-05T15:39:13;18.60;41.80
7234;DHT22;3658;47.992;10.158;2022-12-05T15:41:48;18.60;41.80
7234;DHT22;3658;47.992;10.158;2022-12-05T15:44:16;18.60;42.50
7234;DHT22;3658;47.992;10.158;2022-12-05T15:46:44;18.60;41.80
7234;DHT22;3658;47.992;10.158;2022-12-05T15:49:18;18.60;41.80
7234;DHT22;3658;47.992;10.158;2022-12-05T15:51:50;18.60;41.80
7234;DHT22;3658;47.992;10.158;2022-12-05T15:54:23;18.60;41.80
7234;DHT22;3658;47.992;10.158;2022-12-05T15:56:53;18.60;41.80
7234;DHT22;3658;47.992;10.158;2022-12-05T15:59:25;18.60;41.90
7234;DHT22;3658;47.992;10.158;2022-12-05T16:01:58;18.60;41.80
7234;DHT22;3658;47.992;10.158;2022-12-05T16:04:30;18.60;41.80
7234;DHT22;3658;47.992;10.158;2022-12-05T16:07:04;18.60;41.80
7234;DHT22;3658;47.992;10.158;2022-12-05T16:09:38;18.60;41.80
7234;DHT22;3658;47.992;10.158;2022-12-05T16:12:17;18.60;41.80
7234;DHT22;3658;47.992;10.158;2022-12-05T16:14:48;18.60;41.80
7234;DHT22;3658;47.992;10.158;2022-12-05T16:17:16;18.60;41.80
7234;DHT22;3658;47.992;10.158;2022-12-05T16:19:45;18.60;41.80
7234;DHT22;3658;47.992;10.158;2022-12-05T16:22:20;18.60;41.80